Lusk, WY (82225)

1:57 PM MDT on September 01, 2014 (GMT -0600)
LEMS | Change Station
CLOSE
Current Station
Personal Weather Station
Location: Lusk, WY
Elevation: 5070 ft
Nearby Weather Stations
Active Advisory: Fire Weather Watch

Elev 5070 ft 42.76 °N, 104.45 °W | Updated 30 seconds ago

Mostly Cloudy
Mostly Cloudy
60.1 °F
Feels Like 60.1 °F
N
14.0
Wind Variable Wind from NW
Gusts 20.0 mph

Today
High -- | Low -- °F
--% Chance of Precip.
Yesterday
High -- | Low -- °F
Precip. -- in
6:22 AM 7:32 PM
Waxing Crescent, 43% visible
Pressure 29.88 in
Visibility 10.0 miles
Clouds Few 11000 ft
Dew Point 46 °F
Humidity 60%
Rainfall 0.02 in
Snow Depth Not available.
UV 8 out of 12
Pollen 8.50 out of 12
Air Quality Not available.
Flu Activity Not available.
METAR KDGW 011953Z AUTO 02017G22KT 10SM FEW110 19/08 A2999 RMK AO2 WSHFT 1922 LTG DSNT E SLP119 T01940078

More Conditions Fewer Conditions

Pressure 29.88 in
Visibility 10.0 miles
Clouds Few 11000 ft
Dew Point 46 °F
Humidity 60%
Rainfall 0.02 in
Snow Depth Not available.
UV 8 out of 12
Pollen 8.50 out of 12
Air Quality Not available.
Flu Activity Not available.
METAR KDGW 011953Z AUTO 02017G22KT 10SM FEW110 19/08 A2999 RMK AO2 WSHFT 1922 LTG DSNT E SLP119 T01940078

More Conditions Fewer Conditions

10-Day Weather Forecast

Almanac

Astronomy

Sep. 01, 2014 Rise Set
Actual Time 6:22 AM MDT 7:32 PM MDT
Civil Twilight 5:52 AM MDT 8:01 PM MDT
Nautical Twilight 5:18 AM MDT 8:35 PM MDT
Astronomical Twilight 4:41 AM MDT 9:12 PM MDT
Moon 1:20 PM MDT 11:25 PM MDT
Length of Visible Light 14h 08m
Length of Day
13h 09m
Tomorrow will be 2m 47s shorter.
Waxing Crescent, 43% of the Moon is Illuminated
Today
Waxing Crescent
Sep 2
First Quarter
Sep 8
Full
Sep 15
Last Quarter
Sep 24
New

Today's Extremes

State Highs State Lows

Community

WunderPhotos

Upload Photos

1,749,387 photos uploaded!

WunderBlogs® & News

Nearby

Snow Depth

Station Depth Elevation
Windy Peak 0 in 7900 ft
Reno Hill 0 in 8500 ft
Casper Mountain 0 in 7850 ft
Cole Canyon 0 in 5910 ft
Crow Creek 6 in 8330 ft

Earthquake Activity

City Distance Mag. Time & Date
No recent earthquake activity has been reported nearby.
Minimum magnitude displayed is 2.5.

Coastal Water Temperatures

Place Temperature
No Stations Reporting

Nearby Weather Stations